createdAt,value
2023-02-09T00:00:02.060Z,996.31
2023-02-09T00:01:00.128Z,996.29
2023-02-09T00:02:00.220Z,996.27
2023-02-09T00:03:00.117Z,996.18
2023-02-09T00:04:00.171Z,996.24
2023-02-09T00:05:00.076Z,996.25
2023-02-09T00:06:00.049Z,996.19
2023-02-09T00:07:00.804Z,996.25
2023-02-09T00:08:00.038Z,996.23
2023-02-09T00:09:00.013Z,996.25
2023-02-09T00:09:59.996Z,996.23
2023-02-09T00:11:00.006Z,996.18
2023-02-09T00:11:59.985Z,996.17
2023-02-09T00:12:59.964Z,996.26
2023-02-09T00:13:59.967Z,996.19
2023-02-09T00:14:59.968Z,996.14
2023-02-09T00:15:59.964Z,996.19
2023-02-09T00:16:59.927Z,996.17
2023-02-09T00:17:59.909Z,996.10
2023-02-09T00:18:59.888Z,996.15
2023-02-09T00:19:59.889Z,996.20
2023-02-09T00:20:59.878Z,996.19
2023-02-09T00:21:59.904Z,996.21
2023-02-09T00:22:59.839Z,996.18
2023-02-09T00:23:59.844Z,996.16
2023-02-09T00:24:59.820Z,996.17
2023-02-09T00:25:59.824Z,996.18
2023-02-09T00:26:59.806Z,996.19
2023-02-09T00:27:59.839Z,996.15
2023-02-09T00:28:59.760Z,996.14
2023-02-09T00:29:59.760Z,996.16
2023-02-09T00:30:59.784Z,996.08
2023-02-09T00:31:59.798Z,996.15
2023-02-09T00:32:59.730Z,996.13
2023-02-09T00:33:59.718Z,996.07
2023-02-09T00:34:59.697Z,996.10
2023-02-09T00:35:59.700Z,996.00
2023-02-09T00:36:59.674Z,996.01
2023-02-09T00:37:59.658Z,996.03
2023-02-09T00:38:59.646Z,996.05
2023-02-09T00:39:59.634Z,995.98
2023-02-09T00:40:59.635Z,995.97
2023-02-09T00:41:59.622Z,996.04
2023-02-09T00:42:59.611Z,996.01
2023-02-09T00:43:59.585Z,996.04
2023-02-09T00:44:59.572Z,995.97
2023-02-09T00:45:59.617Z,996.00
2023-02-09T00:46:59.545Z,996.05
2023-02-09T00:47:59.544Z,996.10
2023-02-09T00:48:59.518Z,996.04
2023-02-09T00:49:59.514Z,996.05
2023-02-09T00:50:59.509Z,996.15
2023-02-09T00:51:59.488Z,996.03
2023-02-09T00:52:59.467Z,996.00
2023-02-09T00:53:59.473Z,995.98
2023-02-09T00:54:59.443Z,995.98
2023-02-09T00:55:59.445Z,996.05
2023-02-09T00:56:59.419Z,996.02
2023-02-09T00:57:59.421Z,996.01
2023-02-09T00:58:59.395Z,996.03
2023-02-09T00:59:59.393Z,996.03
2023-02-09T01:00:59.406Z,996.03
2023-02-09T01:01:59.365Z,996.02
2023-02-09T01:02:59.365Z,996.00
2023-02-09T01:03:59.354Z,996.09
2023-02-09T01:04:59.383Z,996.02
2023-02-09T01:05:59.314Z,996.06
2023-02-09T01:06:59.292Z,996.09
2023-02-09T01:07:59.287Z,996.15
2023-02-09T01:08:59.262Z,996.08
2023-02-09T01:09:59.260Z,996.06
2023-02-09T01:10:59.252Z,996.03
2023-02-09T01:11:59.233Z,996.04
2023-02-09T01:12:59.221Z,996.00
2023-02-09T01:13:59.212Z,996.04
2023-02-09T01:14:59.200Z,995.97
2023-02-09T01:15:59.213Z,995.98
2023-02-09T01:16:59.205Z,995.97
2023-02-09T01:17:59.164Z,995.95
2023-02-09T01:18:59.159Z,996.01
2023-02-09T01:19:59.131Z,996.04
2023-02-09T01:20:59.162Z,996.04
2023-02-09T01:21:59.118Z,995.98
2023-02-09T01:22:59.114Z,995.95
2023-02-09T01:23:59.097Z,995.98
2023-02-09T01:24:59.072Z,996.02
2023-02-09T01:25:59.095Z,996.01
2023-02-09T01:26:59.068Z,996.05
2023-02-09T01:27:59.101Z,995.98
2023-02-09T01:28:59.028Z,995.99
2023-02-09T01:29:59.031Z,996.04
2023-02-09T01:30:59.134Z,996.05
2023-02-09T01:31:59.107Z,996.07
2023-02-09T01:32:58.981Z,996.05
2023-02-09T01:33:58.976Z,996.04
2023-02-09T01:34:58.947Z,996.04
2023-02-09T01:35:58.967Z,995.99
2023-02-09T01:36:58.936Z,996.01
2023-02-09T01:37:58.930Z,995.94
2023-02-09T01:38:58.900Z,995.87
2023-02-09T01:39:58.897Z,995.91
2023-02-09T01:40:58.899Z,995.97
2023-02-09T01:41:58.880Z,995.95
2023-02-09T01:42:58.860Z,995.93
2023-02-09T01:43:58.860Z,995.93
2023-02-09T01:44:58.838Z,995.92
2023-02-09T01:45:58.882Z,995.92
2023-02-09T01:46:58.848Z,995.84
2023-02-09T01:47:58.814Z,995.85
2023-02-09T01:48:58.802Z,995.79
2023-02-09T01:49:59.026Z,995.80
2023-02-09T01:50:58.774Z,995.81
2023-02-09T01:51:58.794Z,995.82
2023-02-09T01:52:58.734Z,995.86
2023-02-09T01:53:58.732Z,995.79
2023-02-09T01:54:58.746Z,995.82
2023-02-09T01:55:58.714Z,995.82
2023-02-09T01:56:58.699Z,995.78
2023-02-09T01:57:58.691Z,995.72
2023-02-09T01:58:58.671Z,995.76
2023-02-09T01:59:58.659Z,995.74
2023-02-09T02:01:00.141Z,995.76
2023-02-09T02:01:58.640Z,995.74
2023-02-09T02:02:58.612Z,995.73
2023-02-09T02:03:58.618Z,995.67
2023-02-09T02:04:58.607Z,995.65
2023-02-09T02:05:58.626Z,995.67
2023-02-09T02:06:58.601Z,995.63
2023-02-09T02:07:58.572Z,995.63
2023-02-09T02:08:58.563Z,995.60
2023-02-09T02:09:58.561Z,995.52
2023-02-09T02:10:58.527Z,995.56
2023-02-09T02:11:58.532Z,995.54
2023-02-09T02:12:58.499Z,995.54
2023-02-09T02:13:58.496Z,995.50
2023-02-09T02:14:58.497Z,995.53
2023-02-09T02:15:58.515Z,995.50
2023-02-09T02:16:58.455Z,995.48
2023-02-09T02:17:58.439Z,995.54
2023-02-09T02:18:58.429Z,995.43
2023-02-09T02:19:58.427Z,995.51
2023-02-09T02:20:58.434Z,995.49
2023-02-09T02:21:58.395Z,995.46
2023-02-09T02:22:58.378Z,995.50
2023-02-09T02:23:58.388Z,995.47
2023-02-09T02:24:58.364Z,995.52
2023-02-09T02:25:58.344Z,995.52
2023-02-09T02:26:58.326Z,995.54
2023-02-09T02:27:58.347Z,995.52
2023-02-09T02:28:58.302Z,995.51
2023-02-09T02:29:58.292Z,995.58
2023-02-09T02:30:58.400Z,995.63
2023-02-09T02:31:58.320Z,995.63
2023-02-09T02:32:58.252Z,995.64
2023-02-09T02:33:58.242Z,995.56
2023-02-09T02:34:58.250Z,995.59
2023-02-09T02:35:58.232Z,995.61
2023-02-09T02:36:58.211Z,995.45
2023-02-09T02:37:58.199Z,995.55
2023-02-09T02:38:58.199Z,995.55
2023-02-09T02:39:58.161Z,995.48
2023-02-09T02:40:58.160Z,995.47
2023-02-09T02:41:58.145Z,995.46
2023-02-09T02:42:58.137Z,995.43
2023-02-09T02:43:58.119Z,995.43
2023-02-09T02:44:58.105Z,995.39
2023-02-09T02:45:58.144Z,995.41
2023-02-09T02:46:58.083Z,995.47
2023-02-09T02:47:58.071Z,995.48
2023-02-09T02:48:58.053Z,995.40
2023-02-09T02:49:58.056Z,995.39
2023-02-09T02:50:58.102Z,995.41
2023-02-09T02:51:58.039Z,995.44
2023-02-09T02:52:58.019Z,995.43
2023-02-09T02:53:58.004Z,995.44
2023-02-09T02:54:57.976Z,995.41
2023-02-09T02:55:57.987Z,995.49
2023-02-09T02:56:57.979Z,995.43
2023-02-09T02:57:57.950Z,995.46
2023-02-09T02:58:57.938Z,995.44
2023-02-09T02:59:57.936Z,995.42
2023-02-09T03:00:57.916Z,995.41
2023-02-09T03:01:57.996Z,995.43
2023-02-09T03:02:57.889Z,995.37
2023-02-09T03:03:57.878Z,995.45
2023-02-09T03:04:57.936Z,995.32
2023-02-09T03:05:57.860Z,995.35
2023-02-09T03:06:57.847Z,995.33
2023-02-09T03:07:57.838Z,995.33
2023-02-09T03:08:57.824Z,995.31
2023-02-09T03:09:57.809Z,995.35
2023-02-09T03:10:57.787Z,995.26
2023-02-09T03:11:57.806Z,995.33
2023-02-09T03:12:57.785Z,995.38
2023-02-09T03:13:57.768Z,995.38
2023-02-09T03:14:57.752Z,995.33
2023-02-09T03:15:57.785Z,995.38
2023-02-09T03:16:57.735Z,995.40
2023-02-09T03:17:57.720Z,995.38
2023-02-09T03:18:57.722Z,995.42
2023-02-09T03:19:57.690Z,995.40
2023-02-09T03:20:57.677Z,995.35
2023-02-09T03:21:57.681Z,995.52
2023-02-09T03:22:57.654Z,995.41
2023-02-09T03:23:57.700Z,995.42
2023-02-09T03:24:57.630Z,995.47
2023-02-09T03:25:57.623Z,995.51
2023-02-09T03:26:57.618Z,995.45
2023-02-09T03:27:57.601Z,995.42
2023-02-09T03:28:57.589Z,995.49
2023-02-09T03:29:57.569Z,995.41
2023-02-09T03:30:57.667Z,995.43
2023-02-09T03:31:57.600Z,995.47
2023-02-09T03:32:57.527Z,995.51
2023-02-09T03:33:57.517Z,995.42
2023-02-09T03:34:57.498Z,995.47
2023-02-09T03:35:57.498Z,995.39
2023-02-09T03:36:57.513Z,995.41
2023-02-09T03:37:57.490Z,995.43
2023-02-09T03:38:57.456Z,995.38
2023-02-09T03:39:57.458Z,995.40
2023-02-09T03:40:57.453Z,995.40
2023-02-09T03:41:57.447Z,995.40
2023-02-09T03:42:57.414Z,995.39
2023-02-09T03:43:57.404Z,995.42
2023-02-09T03:44:57.408Z,995.46
2023-02-09T03:45:57.376Z,995.41
2023-02-09T03:46:57.372Z,995.48
2023-02-09T03:47:57.356Z,995.50
2023-02-09T03:48:57.333Z,995.47
2023-02-09T03:49:57.330Z,995.44
2023-02-09T04:03:37.491Z,995.46
2023-02-09T04:04:37.467Z,995.48
2023-02-09T04:05:37.441Z,995.42
2023-02-09T04:06:37.433Z,995.53
2023-02-09T04:07:37.435Z,995.52
2023-02-09T04:08:37.416Z,995.44
2023-02-09T04:09:37.404Z,995.46
2023-02-09T04:10:37.377Z,995.51
2023-02-09T04:11:37.394Z,995.45
2023-02-09T04:12:37.371Z,995.50
2023-02-09T04:13:37.352Z,995.48
2023-02-09T04:14:37.330Z,995.50
2023-02-09T04:15:37.329Z,995.48
2023-02-09T04:16:37.405Z,995.45
2023-02-09T04:17:37.307Z,995.50
2023-02-09T04:18:37.282Z,995.47
2023-02-09T04:19:37.283Z,995.50
2023-02-09T04:20:37.270Z,995.48
2023-02-09T04:21:37.296Z,995.46
2023-02-09T04:22:37.247Z,995.44
2023-02-09T04:23:37.241Z,995.49
2023-02-09T04:24:37.236Z,995.54
2023-02-09T04:25:37.218Z,995.55
2023-02-09T04:26:37.193Z,995.55
2023-02-09T04:27:37.186Z,995.55
2023-02-09T04:28:37.164Z,995.61
2023-02-09T04:29:37.152Z,995.63
2023-02-09T04:30:37.142Z,995.66
2023-02-09T04:31:37.196Z,995.60
2023-02-09T04:32:37.119Z,995.60
2023-02-09T04:33:37.113Z,995.60
2023-02-09T04:34:37.093Z,995.62
2023-02-09T04:35:37.118Z,995.59
2023-02-09T04:36:37.071Z,995.64
2023-02-09T04:37:37.095Z,995.62
2023-02-09T04:38:37.392Z,995.61
2023-02-09T04:39:37.043Z,995.57
2023-02-09T04:40:37.049Z,995.58
2023-02-09T04:41:37.027Z,995.65
2023-02-09T04:42:37.045Z,995.61
2023-02-09T04:43:36.992Z,995.59
2023-02-09T04:44:36.970Z,995.59
2023-02-09T04:45:37.014Z,995.59
2023-02-09T04:46:36.968Z,995.59
2023-02-09T04:47:36.951Z,995.64
2023-02-09T04:48:36.942Z,995.64
2023-02-09T04:49:36.924Z,995.66
2023-02-09T04:50:36.902Z,995.65
2023-02-09T04:51:36.907Z,995.65
2023-02-09T04:52:36.880Z,995.64
2023-02-09T04:53:36.900Z,995.65
2023-02-09T04:54:36.865Z,995.66
2023-02-09T04:55:36.848Z,995.60
2023-02-09T04:56:38.639Z,995.68
2023-02-09T04:57:36.839Z,995.63
2023-02-09T04:58:36.839Z,995.62
2023-02-09T04:59:36.804Z,995.63
2023-02-09T05:00:36.827Z,995.62
2023-02-09T05:01:36.760Z,995.57
2023-02-09T05:02:36.767Z,995.60
2023-02-09T05:03:36.821Z,995.58
2023-02-09T05:04:36.744Z,995.58
2023-02-09T05:05:36.732Z,995.61
2023-02-09T05:06:36.710Z,995.58
2023-02-09T05:07:36.702Z,995.59
2023-02-09T05:08:36.680Z,995.56
2023-02-09T05:09:36.704Z,995.68
2023-02-09T05:10:36.670Z,995.65
2023-02-09T05:11:36.650Z,995.62
2023-02-09T05:12:36.639Z,995.65
2023-02-09T05:13:36.633Z,995.61
2023-02-09T05:14:36.657Z,995.67
2023-02-09T05:15:36.590Z,995.60
2023-02-09T05:16:39.039Z,995.65
2023-02-09T05:17:36.571Z,995.61
2023-02-09T05:18:36.556Z,995.65
2023-02-09T05:19:36.568Z,995.65
2023-02-09T05:20:36.543Z,995.63
2023-02-09T05:21:36.540Z,995.68
2023-02-09T05:22:36.518Z,995.65
2023-02-09T05:23:36.498Z,995.69
2023-02-09T05:24:36.533Z,995.77
2023-02-09T05:25:36.520Z,995.72
2023-02-09T05:26:36.471Z,995.70
2023-02-09T05:27:36.456Z,995.74
2023-02-09T05:28:36.484Z,995.72
2023-02-09T05:29:36.459Z,995.72
2023-02-09T05:30:36.414Z,995.70
2023-02-09T05:31:36.583Z,995.68
2023-02-09T05:32:36.378Z,995.71
2023-02-09T05:33:36.382Z,995.73
2023-02-09T05:34:36.407Z,995.67
2023-02-09T05:35:36.364Z,995.59
2023-02-09T05:36:36.339Z,995.60
2023-02-09T05:37:36.320Z,995.72
2023-02-09T05:38:36.310Z,995.64
2023-02-09T05:39:36.349Z,995.58
2023-02-09T05:40:36.288Z,995.59
2023-02-09T05:41:36.283Z,995.60
2023-02-09T05:42:36.269Z,995.63
2023-02-09T05:43:36.253Z,995.60
2023-02-09T05:44:36.269Z,995.62
2023-02-09T05:45:36.303Z,995.61
2023-02-09T05:46:36.227Z,995.58
2023-02-09T05:47:36.207Z,995.65
2023-02-09T05:48:36.218Z,995.56
2023-02-09T05:49:36.212Z,995.65
2023-02-09T05:50:36.185Z,995.60
2023-02-09T05:51:36.189Z,995.58
2023-02-09T05:52:36.179Z,995.54
2023-02-09T05:53:36.155Z,995.53
2023-02-09T05:54:36.147Z,995.60
2023-02-09T05:55:36.119Z,995.59
2023-02-09T05:56:36.106Z,995.59
2023-02-09T05:57:36.077Z,995.63
2023-02-09T05:58:36.081Z,995.59
2023-02-09T05:59:36.062Z,995.56
2023-02-09T06:00:36.033Z,995.63
2023-02-09T06:01:36.032Z,995.62
2023-02-09T06:02:36.087Z,995.58
2023-02-09T06:03:36.046Z,995.55
2023-02-09T06:04:36.004Z,995.63
2023-02-09T06:05:36.012Z,995.61
2023-02-09T06:06:35.980Z,995.57
2023-02-09T06:07:35.963Z,995.54
2023-02-09T06:08:35.948Z,995.57
2023-02-09T06:09:35.933Z,995.58
2023-02-09T06:10:35.946Z,995.61
2023-02-09T06:11:35.913Z,995.59
2023-02-09T06:12:35.924Z,995.58
2023-02-09T06:13:35.871Z,995.67
2023-02-09T06:14:35.892Z,995.64
2023-02-09T06:15:35.889Z,995.69
2023-02-09T06:16:35.880Z,995.69
2023-02-09T06:17:35.841Z,995.72
2023-02-09T06:18:35.843Z,995.72
2023-02-09T06:19:35.808Z,995.73
2023-02-09T06:20:35.830Z,995.65
2023-02-09T06:21:35.789Z,995.61
2023-02-09T06:22:35.783Z,995.73
2023-02-09T06:23:35.786Z,995.62
2023-02-09T06:24:35.754Z,995.71
2023-02-09T06:25:35.751Z,995.66
2023-02-09T06:26:35.738Z,995.61
2023-02-09T06:27:35.700Z,995.65
2023-02-09T06:28:35.725Z,995.67
2023-02-09T06:29:35.680Z,995.71
2023-02-09T06:30:35.780Z,995.63
2023-02-09T06:31:35.795Z,995.65
2023-02-09T06:32:35.781Z,995.67
2023-02-09T06:33:35.649Z,995.70
2023-02-09T06:34:35.632Z,995.66
2023-02-09T06:35:35.648Z,995.72
2023-02-09T06:36:35.610Z,995.70
2023-02-09T06:37:35.591Z,995.69
2023-02-09T06:38:35.620Z,995.69
2023-02-09T06:39:35.575Z,995.72
2023-02-09T06:40:35.577Z,995.75
2023-02-09T06:41:35.560Z,995.75
2023-02-09T06:42:35.541Z,995.76
2023-02-09T06:43:35.529Z,995.78
2023-02-09T06:44:35.515Z,995.76
2023-02-09T06:45:35.506Z,995.76
2023-02-09T06:46:35.567Z,995.81
2023-02-09T06:47:35.472Z,995.73
2023-02-09T06:48:35.463Z,995.74
2023-02-09T06:49:35.452Z,995.74
2023-02-09T06:50:35.468Z,995.74
2023-02-09T06:51:35.469Z,995.70
2023-02-09T06:52:35.413Z,995.72
2023-02-09T06:53:35.403Z,995.75
2023-02-09T06:54:35.399Z,995.72
2023-02-09T06:55:35.390Z,995.68
2023-02-09T06:56:35.386Z,995.66
2023-02-09T06:57:35.369Z,995.72
2023-02-09T06:58:35.334Z,995.68
2023-02-09T06:59:35.349Z,995.69
2023-02-09T07:00:35.355Z,995.73
2023-02-09T07:01:35.329Z,995.74
2023-02-09T07:02:35.307Z,995.75
2023-02-09T07:03:35.277Z,995.78
2023-02-09T07:04:35.284Z,995.74
2023-02-09T07:05:35.252Z,995.77
2023-02-09T07:06:35.310Z,995.75
2023-02-09T07:07:35.230Z,995.77
2023-02-09T07:08:35.226Z,995.73
2023-02-09T07:09:35.203Z,995.78
2023-02-09T07:10:35.192Z,995.81
2023-02-09T07:11:35.212Z,995.80
2023-02-09T07:12:35.182Z,995.79
2023-02-09T07:13:35.143Z,995.86
2023-02-09T07:14:35.157Z,995.85
2023-02-09T07:15:35.141Z,995.82
2023-02-09T07:16:35.112Z,995.83
2023-02-09T07:17:35.103Z,995.85
2023-02-09T07:18:35.090Z,995.83
2023-02-09T07:19:35.073Z,995.82
2023-02-09T07:20:35.081Z,995.92
2023-02-09T07:21:35.060Z,995.88
2023-02-09T07:22:35.056Z,995.92
2023-02-09T07:23:35.024Z,995.91
2023-02-09T07:24:35.020Z,995.91
2023-02-09T07:25:35.113Z,995.87
2023-02-09T07:26:35.011Z,995.87
2023-02-09T07:27:35.024Z,995.88
2023-02-09T07:28:35.092Z,995.92
2023-02-09T07:29:34.970Z,995.94
2023-02-09T07:30:35.036Z,996.02
2023-02-09T07:31:35.051Z,995.95
2023-02-09T07:32:34.955Z,996.02
2023-02-09T07:33:34.919Z,995.95
2023-02-09T07:34:34.894Z,995.97
2023-02-09T07:35:34.901Z,995.99
2023-02-09T07:36:34.879Z,996.00
2023-02-09T07:37:34.872Z,995.94
2023-02-09T07:38:34.858Z,995.99
2023-02-09T07:39:34.829Z,995.93
2023-02-09T07:40:34.841Z,995.96
2023-02-09T07:41:34.818Z,995.95
2023-02-09T07:42:34.798Z,995.98
2023-02-09T07:43:34.847Z,996.02
2023-02-09T07:44:34.807Z,995.98
2023-02-09T07:45:34.766Z,995.92
2023-02-09T07:46:34.790Z,995.97
2023-02-09T07:47:34.761Z,995.99
2023-02-09T07:48:34.725Z,996.00
2023-02-09T07:49:34.735Z,995.99
2023-02-09T07:50:34.708Z,996.08
2023-02-09T07:51:34.845Z,996.04
2023-02-09T07:52:34.675Z,996.09
2023-02-09T07:53:34.684Z,996.06
2023-02-09T07:54:34.682Z,996.00
2023-02-09T07:55:34.644Z,996.05
2023-02-09T07:56:34.622Z,996.05
2023-02-09T07:57:34.616Z,996.09
2023-02-09T07:58:34.604Z,995.99
2023-02-09T07:59:34.621Z,996.10
2023-02-09T08:00:34.593Z,996.03
2023-02-09T08:01:34.618Z,996.07
2023-02-09T08:02:34.567Z,996.09
2023-02-09T08:03:34.542Z,996.16
2023-02-09T08:04:34.569Z,996.08
2023-02-09T08:05:34.515Z,996.13
2023-02-09T08:06:42.187Z,996.06
2023-02-09T08:07:35.485Z,996.16
2023-02-09T08:08:34.502Z,996.07
2023-02-09T08:09:34.484Z,996.14
2023-02-09T08:10:34.478Z,996.11
2023-02-09T08:11:34.447Z,996.10
2023-02-09T08:12:34.438Z,996.10
2023-02-09T08:13:34.414Z,996.11
2023-02-09T08:14:34.440Z,996.09
2023-02-09T08:15:34.423Z,996.02
2023-02-09T08:16:34.415Z,996.02
2023-02-09T08:17:34.364Z,996.10
2023-02-09T08:18:34.389Z,996.03
2023-02-09T08:19:34.336Z,996.06
2023-02-09T08:20:34.391Z,996.05
2023-02-09T08:21:34.318Z,996.00
2023-02-09T08:22:34.312Z,996.03
2023-02-09T08:23:34.296Z,996.01
2023-02-09T08:24:34.286Z,996.01
2023-02-09T08:25:34.313Z,996.05
2023-02-09T08:26:34.266Z,996.04
2023-02-09T08:27:34.245Z,995.98
2023-02-09T08:28:43.629Z,996.00
2023-02-09T08:29:35.206Z,995.98
2023-02-09T08:30:34.290Z,995.97
2023-02-09T08:31:34.278Z,995.98
2023-02-09T08:32:34.237Z,996.00
2023-02-09T08:33:34.163Z,996.00
2023-02-09T08:34:34.158Z,996.06
2023-02-09T08:35:34.160Z,996.03
2023-02-09T08:36:34.149Z,996.02
2023-02-09T08:37:34.105Z,996.00
2023-02-09T08:38:34.126Z,995.97
2023-02-09T08:39:34.084Z,995.95
2023-02-09T08:40:34.115Z,995.95
2023-02-09T08:41:34.066Z,995.93
2023-02-09T08:42:34.074Z,995.94
2023-02-09T08:43:34.034Z,996.00
2023-02-09T08:44:34.044Z,995.98
2023-02-09T08:45:34.177Z,995.98
2023-02-09T08:46:34.169Z,996.04
2023-02-09T08:47:33.984Z,996.02
2023-02-09T08:48:35.736Z,996.00
2023-02-09T08:49:33.973Z,996.02
2023-02-09T08:50:33.962Z,995.97
2023-02-09T08:51:33.942Z,995.99
2023-02-09T08:52:33.944Z,995.97
2023-02-09T08:53:33.940Z,996.00
2023-02-09T08:54:33.897Z,995.97
2023-02-09T08:55:33.931Z,995.94
2023-02-09T08:56:33.888Z,995.99
2023-02-09T08:57:43.644Z,995.98
2023-02-09T08:58:34.878Z,995.95
2023-02-09T08:59:33.855Z,995.99
2023-02-09T09:00:33.890Z,996.05
2023-02-09T09:01:33.933Z,995.96
2023-02-09T09:02:33.808Z,996.03
2023-02-09T09:03:33.813Z,995.98
2023-02-09T09:04:33.787Z,995.94
2023-02-09T09:05:33.786Z,995.95
2023-02-09T09:06:33.771Z,995.98
2023-02-09T09:07:33.740Z,995.92
2023-02-09T09:08:33.729Z,995.95
2023-02-09T09:09:33.730Z,995.97
2023-02-09T09:10:33.726Z,995.87
2023-02-09T09:11:33.711Z,995.89
2023-02-09T09:12:33.679Z,995.80
2023-02-09T09:13:33.661Z,995.86
2023-02-09T09:14:33.674Z,995.82
2023-02-09T09:15:33.659Z,995.83
2023-02-09T09:16:33.699Z,995.85
2023-02-09T09:17:33.674Z,995.79
2023-02-09T09:18:33.599Z,995.81
2023-02-09T09:19:33.608Z,995.83
2023-02-09T09:20:33.580Z,995.77
2023-02-09T09:21:33.574Z,995.89
2023-02-09T09:22:33.565Z,995.88
2023-02-09T09:23:33.530Z,995.87
2023-02-09T09:24:33.532Z,995.84
2023-02-09T09:25:33.532Z,995.79
2023-02-09T09:26:33.512Z,995.79
2023-02-09T09:27:33.492Z,995.79
2023-02-09T09:28:33.632Z,995.70
2023-02-09T09:29:33.474Z,995.72
2023-02-09T09:30:33.493Z,995.71
2023-02-09T09:31:33.641Z,995.78
2023-02-09T09:32:33.573Z,995.71
2023-02-09T09:33:33.414Z,995.75
2023-02-09T09:34:33.404Z,995.76
2023-02-09T09:35:33.427Z,995.65
2023-02-09T09:36:33.393Z,995.71
2023-02-09T09:37:33.370Z,995.61
2023-02-09T09:38:33.501Z,995.50
2023-02-09T09:39:33.336Z,995.46
2023-02-09T09:40:33.350Z,995.48
2023-02-09T09:41:33.319Z,995.51
2023-02-09T09:42:33.385Z,995.41
2023-02-09T09:43:33.312Z,995.34
2023-02-09T09:44:33.329Z,995.32
2023-02-09T09:45:33.303Z,995.34
2023-02-09T09:46:33.364Z,995.34
2023-02-09T09:47:33.264Z,995.34
2023-02-09T10:04:20.121Z,995.19
2023-02-09T10:05:20.064Z,995.13
2023-02-09T10:06:20.066Z,995.17
2023-02-09T10:07:21.853Z,995.13
2023-02-09T10:08:20.032Z,995.16
2023-02-09T10:09:20.018Z,995.16
2023-02-09T10:10:20.053Z,995.14
2023-02-09T10:11:20.004Z,995.11
2023-02-09T10:12:20.004Z,995.07
2023-02-09T10:13:19.965Z,995.05
2023-02-09T10:14:21.408Z,995.08
2023-02-09T10:15:19.961Z,995.09
2023-02-09T10:16:20.022Z,995.10
2023-02-09T10:17:19.917Z,995.11
2023-02-09T10:18:19.923Z,995.07
2023-02-09T10:19:28.435Z,995.03
2023-02-09T10:20:19.889Z,995.08
2023-02-09T10:21:19.860Z,995.11
2023-02-09T10:22:19.849Z,995.10
2023-02-09T10:23:19.852Z,995.08
2023-02-09T10:24:19.810Z,995.04
2023-02-09T10:25:19.811Z,995.04
2023-02-09T10:26:19.802Z,995.05
2023-02-09T10:27:19.812Z,995.00
2023-02-09T10:28:19.854Z,994.99
2023-02-09T10:29:19.750Z,995.00
2023-02-09T10:30:19.877Z,995.04
2023-02-09T10:31:19.839Z,995.07
2023-02-09T10:32:19.720Z,995.03
2023-02-09T10:33:19.728Z,995.03
2023-02-09T10:34:19.695Z,994.99
2023-02-09T10:35:19.681Z,994.93
2023-02-09T10:36:19.682Z,994.97
2023-02-09T10:37:19.649Z,994.90
2023-02-09T10:38:19.657Z,994.85
2023-02-09T10:39:19.633Z,994.86
2023-02-09T10:40:19.685Z,994.87
2023-02-09T10:41:19.611Z,994.82
2023-02-09T10:42:19.622Z,994.85
2023-02-09T10:43:19.600Z,994.83
2023-02-09T10:44:19.560Z,994.74
2023-02-09T10:45:19.560Z,994.75
2023-02-09T10:46:19.623Z,994.73
2023-02-09T10:47:19.525Z,994.77
2023-02-09T10:48:19.497Z,994.79
2023-02-09T10:49:19.484Z,994.69
2023-02-09T10:50:19.552Z,994.71
2023-02-09T10:51:19.500Z,994.70
2023-02-09T10:52:19.487Z,994.78
2023-02-09T10:53:19.441Z,994.77
2023-02-09T10:54:19.424Z,994.77
2023-02-09T10:55:19.421Z,994.75
2023-02-09T10:56:19.449Z,994.76
2023-02-09T10:57:19.396Z,994.70
2023-02-09T10:58:19.394Z,994.74
2023-02-09T10:59:19.353Z,994.76
2023-02-09T11:00:19.480Z,994.73
2023-02-09T11:01:19.453Z,994.68
2023-02-09T11:02:19.347Z,994.68
2023-02-09T11:03:19.314Z,994.71
2023-02-09T11:04:19.337Z,994.71
2023-02-09T11:05:19.289Z,994.72
2023-02-09T11:06:19.281Z,994.73
2023-02-09T11:07:19.259Z,994.61
2023-02-09T11:08:19.250Z,994.57
2023-02-09T11:09:19.231Z,994.51
2023-02-09T11:10:19.208Z,994.58
2023-02-09T11:11:19.231Z,994.56
2023-02-09T11:12:19.195Z,994.52
2023-02-09T11:13:19.181Z,994.55
2023-02-09T11:14:19.180Z,994.54
2023-02-09T11:15:19.174Z,994.52
2023-02-09T11:16:19.192Z,994.52
2023-02-09T11:17:19.151Z,994.44
2023-02-09T11:18:19.133Z,994.48
2023-02-09T11:19:19.106Z,994.38
2023-02-09T11:20:19.091Z,994.47
2023-02-09T11:21:19.089Z,994.42
2023-02-09T11:22:19.054Z,994.43
2023-02-09T11:23:19.066Z,994.42
2023-02-09T11:24:19.025Z,994.42
2023-02-09T11:25:19.026Z,994.37
2023-02-09T11:26:19.025Z,994.44
2023-02-09T11:27:19.004Z,994.39
2023-02-09T11:28:19.049Z,994.41
2023-02-09T11:29:19.006Z,994.36
2023-02-09T11:30:18.974Z,994.33
2023-02-09T11:31:19.024Z,994.33
2023-02-09T11:32:18.939Z,994.33
2023-02-09T11:33:18.938Z,994.28
2023-02-09T11:34:18.938Z,994.33
2023-02-09T11:35:18.927Z,994.34
2023-02-09T11:36:18.882Z,994.40
2023-02-09T11:37:18.888Z,994.31
2023-02-09T11:38:18.873Z,994.27
2023-02-09T11:39:18.878Z,994.30
2023-02-09T11:40:18.827Z,994.29
2023-02-09T11:41:18.828Z,994.22
2023-02-09T11:42:18.829Z,994.25
2023-02-09T11:43:18.803Z,994.23
2023-02-09T11:44:18.793Z,994.28
2023-02-09T11:45:18.760Z,994.27
2023-02-09T11:46:18.817Z,994.26
2023-02-09T11:47:18.763Z,994.22
2023-02-09T11:48:18.742Z,994.21
2023-02-09T11:49:18.703Z,994.17
2023-02-09T11:50:18.681Z,994.20
2023-02-09T11:51:18.692Z,994.12
2023-02-09T11:52:18.701Z,994.12
2023-02-09T11:53:18.676Z,994.13
2023-02-09T11:54:18.636Z,994.11
2023-02-09T11:55:18.626Z,994.08
2023-02-09T11:56:18.630Z,994.09
2023-02-09T11:57:18.647Z,994.09
2023-02-09T11:58:18.603Z,994.10
2023-02-09T11:59:18.565Z,994.01
2023-02-09T12:00:18.578Z,994.05
2023-02-09T12:01:18.833Z,994.00
2023-02-09T12:02:18.571Z,994.01
2023-02-09T12:03:18.568Z,994.05
2023-02-09T12:04:18.629Z,993.99
2023-02-09T12:05:18.508Z,993.96
2023-02-09T12:06:18.513Z,993.95
2023-02-09T12:07:18.492Z,993.88
2023-02-09T12:08:18.497Z,993.86
2023-02-09T12:09:18.477Z,993.85
2023-02-09T12:10:18.430Z,993.83
2023-02-09T12:11:18.421Z,993.93
2023-02-09T12:12:18.429Z,993.80
2023-02-09T12:13:18.400Z,993.79
2023-02-09T12:14:18.371Z,993.77
2023-02-09T12:15:18.369Z,993.80
2023-02-09T12:16:18.462Z,993.66
2023-02-09T12:17:18.353Z,993.70
2023-02-09T12:18:18.312Z,993.74
2023-02-09T12:19:18.315Z,993.71
2023-02-09T12:20:18.301Z,993.70
2023-02-09T12:21:18.294Z,993.71
2023-02-09T12:22:18.283Z,993.67
2023-02-09T12:23:18.274Z,993.71
2023-02-09T12:24:18.265Z,993.68
2023-02-09T12:25:18.233Z,993.67
2023-02-09T12:26:18.226Z,993.63
2023-02-09T12:27:18.225Z,993.64
2023-02-09T12:28:18.262Z,993.64
2023-02-09T12:29:18.177Z,993.62
2023-02-09T12:30:18.162Z,993.56
2023-02-09T12:31:18.365Z,993.61
2023-02-09T12:32:18.203Z,993.58
2023-02-09T12:33:18.153Z,993.51
2023-02-09T12:34:18.124Z,993.44
2023-02-09T12:35:18.094Z,993.44
2023-02-09T12:36:18.126Z,993.38
2023-02-09T12:37:18.091Z,993.38
2023-02-09T12:38:18.097Z,993.40
2023-02-09T12:39:23.867Z,993.27
2023-02-09T12:40:19.033Z,993.28
2023-02-09T12:41:18.027Z,993.25
2023-02-09T12:42:18.005Z,993.27
2023-02-09T12:43:18.038Z,993.22
2023-02-09T12:44:17.973Z,993.24
2023-02-09T12:45:17.967Z,993.26
2023-02-09T12:46:17.979Z,993.19
2023-02-09T12:47:17.958Z,993.22
2023-02-09T12:48:17.947Z,993.19
2023-02-09T12:49:17.921Z,993.20
2023-02-09T12:50:17.895Z,993.17
2023-02-09T12:51:17.887Z,993.12
2023-02-09T12:52:17.876Z,993.20
2023-02-09T12:53:17.881Z,993.18
2023-02-09T12:54:17.878Z,993.18
2023-02-09T12:55:17.847Z,993.23
2023-02-09T12:56:17.830Z,993.21